createdAt,value
2019-04-21T00:01:14.570Z,8.80
2019-04-21T00:03:51.271Z,8.80
2019-04-21T00:06:45.592Z,8.70
2019-04-21T00:09:19.305Z,8.70
2019-04-21T00:11:48.313Z,8.60
2019-04-21T00:14:08.976Z,8.60
2019-04-21T00:16:39.352Z,8.70
2019-04-21T00:19:19.098Z,8.70
2019-04-21T00:21:51.130Z,8.60
2019-04-21T00:24:28.834Z,8.70
2019-04-21T00:27:06.971Z,8.70
2019-04-21T00:32:10.191Z,8.60
2019-04-21T00:34:27.973Z,8.50
2019-04-21T00:37:11.401Z,8.50
2019-04-21T00:42:22.803Z,8.50
2019-04-21T00:44:54.233Z,8.50
2019-04-21T00:47:30.296Z,8.50
2019-04-21T00:50:02.368Z,8.50
2019-04-21T00:52:52.580Z,8.50
2019-04-21T00:58:18.342Z,8.40
2019-04-21T01:00:49.627Z,8.50
2019-04-21T01:03:14.490Z,8.50
2019-04-21T01:05:52.912Z,8.40
2019-04-21T01:08:23.117Z,8.40
2019-04-21T01:10:43.334Z,8.40
2019-04-21T01:13:29.421Z,8.40
2019-04-21T01:15:59.617Z,8.40
2019-04-21T01:18:29.474Z,8.40
2019-04-21T01:20:41.853Z,8.50
2019-04-21T01:23:12.857Z,8.50
2019-04-21T01:25:59.309Z,8.50
2019-04-21T01:28:34.399Z,8.50
2019-04-21T01:31:11.008Z,8.60
2019-04-21T01:33:44.725Z,8.50
2019-04-21T01:36:08.266Z,8.60
2019-04-21T01:38:48.304Z,8.50
2019-04-21T01:43:49.177Z,8.50
2019-04-21T01:46:24.577Z,8.40
2019-04-21T01:48:49.346Z,8.40
2019-04-21T01:51:32.131Z,8.30
2019-04-21T01:54:09.300Z,8.30
2019-04-21T01:56:56.978Z,8.20
2019-04-21T01:59:27.015Z,8.10
2019-04-21T02:02:08.067Z,8.00
2019-04-21T02:04:42.855Z,7.90
2019-04-21T02:07:11.531Z,7.80
2019-04-21T02:09:46.365Z,7.70
2019-04-21T02:12:20.693Z,7.80
2019-04-21T02:14:59.172Z,7.70
2019-04-21T02:17:23.918Z,7.60
2019-04-21T02:19:53.769Z,7.70
2019-04-21T02:22:35.323Z,7.60
2019-04-21T02:25:00.990Z,7.60
2019-04-21T02:27:31.770Z,7.50
2019-04-21T02:30:12.525Z,7.50
2019-04-21T02:32:55.673Z,7.50
2019-04-21T02:40:29.417Z,7.30
2019-04-21T02:43:07.504Z,7.30
2019-04-21T02:50:31.593Z,7.30
2019-04-21T02:55:36.715Z,7.20
2019-04-21T02:58:17.898Z,7.20
2019-04-21T03:01:14.523Z,7.10
2019-04-21T03:03:54.811Z,7.10
2019-04-21T03:06:59.833Z,7.10
2019-04-21T03:09:18.345Z,7.10
2019-04-21T03:11:56.475Z,7.10
2019-04-21T03:14:30.985Z,7.10
2019-04-21T03:16:47.065Z,7.10
2019-04-21T03:19:36.475Z,7.10
2019-04-21T03:22:07.212Z,7.10
2019-04-21T03:24:50.678Z,7.10
2019-04-21T03:29:35.005Z,7.20
2019-04-21T03:32:35.355Z,7.30
2019-04-21T03:35:18.947Z,7.40
2019-04-21T03:37:23.488Z,7.40
2019-04-21T03:39:56.051Z,7.40
2019-04-21T03:42:28.876Z,7.50
2019-04-21T03:44:59.110Z,7.60
2019-04-21T03:52:36.070Z,7.60
2019-04-21T04:01:06.004Z,8.80
2019-04-21T04:04:08.440Z,9.30
2019-04-21T04:06:56.529Z,9.80
2019-04-21T04:11:54.793Z,10.10
2019-04-21T04:27:19.940Z,11.20
2019-04-21T04:29:39.774Z,11.50
2019-04-21T04:32:14.610Z,11.80
2019-04-21T04:40:24.883Z,12.80
2019-04-21T04:43:09.022Z,13.20
2019-04-21T04:45:41.656Z,13.90
2019-04-21T04:48:05.522Z,14.00
2019-04-21T04:50:55.355Z,14.30
2019-04-21T04:53:17.901Z,14.30
2019-04-21T04:55:46.999Z,14.40
2019-04-21T04:58:56.282Z,14.80
2019-04-21T05:00:58.096Z,14.60
2019-04-21T05:11:39.829Z,14.90
2019-04-21T05:16:41.105Z,14.90
2019-04-21T05:19:10.563Z,15.50
2019-04-21T05:23:55.783Z,15.60
2019-04-21T05:26:29.899Z,16.00
2019-04-21T05:28:59.326Z,15.50
2019-04-21T05:31:52.406Z,15.80
2019-04-21T05:34:26.012Z,16.20
2019-04-21T05:37:10.388Z,16.70
2019-04-21T05:39:51.024Z,16.60
2019-04-21T05:42:15.434Z,17.50
2019-04-21T05:45:05.457Z,16.80
2019-04-21T05:47:39.625Z,16.30
2019-04-21T05:50:11.542Z,16.00
2019-04-21T05:52:49.725Z,15.60
2019-04-21T05:58:02.531Z,16.40
2019-04-21T06:00:59.167Z,16.20
2019-04-21T06:03:09.869Z,15.90
2019-04-21T06:08:16.075Z,16.40
2019-04-21T06:10:47.674Z,16.30
2019-04-21T06:13:26.886Z,17.10
2019-04-21T06:15:56.502Z,17.50
2019-04-21T06:18:27.250Z,17.50
2019-04-21T06:21:16.526Z,17.50
2019-04-21T06:23:35.089Z,18.40
2019-04-21T06:26:20.037Z,18.80
2019-04-21T06:31:31.784Z,19.20
2019-04-21T06:33:43.138Z,18.40
2019-04-21T06:36:47.097Z,18.20
2019-04-21T06:44:12.931Z,19.40
2019-04-21T06:46:43.697Z,20.00
2019-04-21T06:49:08.588Z,19.20
2019-04-21T06:54:19.596Z,18.80
2019-04-21T06:57:00.802Z,19.10
2019-04-21T06:59:20.793Z,18.90
2019-04-21T07:02:05.322Z,18.40
2019-04-21T07:06:59.452Z,18.30
2019-04-21T07:09:31.657Z,19.00
2019-04-21T07:14:49.433Z,18.80
2019-04-21T07:17:11.444Z,17.10
2019-04-21T07:22:14.571Z,16.40
2019-04-21T07:24:46.120Z,15.40
2019-04-21T07:29:47.527Z,15.00
2019-04-21T07:32:18.375Z,16.70
2019-04-21T07:34:52.173Z,16.10
2019-04-21T07:39:52.762Z,15.40
2019-04-21T07:42:23.791Z,16.40
2019-04-21T07:44:52.258Z,17.80
2019-04-21T07:50:14.711Z,19.30
2019-04-21T07:57:52.645Z,20.80
2019-04-21T08:05:33.974Z,21.70
2019-04-21T08:13:17.333Z,17.40
2019-04-21T08:18:12.760Z,18.20
2019-04-21T08:20:45.255Z,17.40
2019-04-21T08:23:21.626Z,17.20
2019-04-21T08:26:04.662Z,17.00
2019-04-21T08:30:55.493Z,16.90
2019-04-21T08:33:32.506Z,15.40
2019-04-21T08:38:31.313Z,16.70
2019-04-21T08:41:01.967Z,17.80
2019-04-21T08:56:31.997Z,19.00
2019-04-21T09:09:29.396Z,17.90
2019-04-21T09:17:02.929Z,19.10
2019-04-21T09:19:48.336Z,17.50
2019-04-21T09:22:09.553Z,17.30
2019-04-21T09:24:41.213Z,17.10
2019-04-21T09:27:08.502Z,17.30
2019-04-21T09:29:35.466Z,17.50
2019-04-21T09:32:00.023Z,17.50
2019-04-21T09:34:36.932Z,17.50
2019-04-21T09:39:41.819Z,17.40
2019-04-21T09:42:06.988Z,16.90
2019-04-21T09:44:40.918Z,17.00
2019-04-21T09:47:12.118Z,17.30
2019-04-21T09:49:43.293Z,17.30
2019-04-21T09:52:20.908Z,17.80
2019-04-21T09:54:56.602Z,18.10
2019-04-21T09:57:30.014Z,18.00
2019-04-21T10:00:02.478Z,17.70
2019-04-21T10:02:34.295Z,17.60
2019-04-21T10:04:55.808Z,18.00
2019-04-21T10:07:34.364Z,17.30
2019-04-21T10:09:59.900Z,16.60
2019-04-21T10:12:30.990Z,16.50
2019-04-21T10:15:01.953Z,16.80
2019-04-21T10:17:41.652Z,16.60
2019-04-21T10:20:13.794Z,16.50
2019-04-21T10:22:44.820Z,16.60
2019-04-21T10:25:16.660Z,16.60
2019-04-21T10:30:18.103Z,16.80
2019-04-21T10:35:21.124Z,16.60
2019-04-21T10:38:05.306Z,17.00
2019-04-21T10:40:23.757Z,17.00
2019-04-21T10:47:56.862Z,16.90
2019-04-21T10:50:28.733Z,15.90
2019-04-21T10:53:06.934Z,16.00
2019-04-21T10:55:54.085Z,16.20
2019-04-21T10:58:16.538Z,16.10
2019-04-21T11:00:48.431Z,15.80
2019-04-21T11:03:33.301Z,15.60
2019-04-21T11:06:06.586Z,15.60
2019-04-21T11:08:43.197Z,15.30
2019-04-21T11:11:10.079Z,15.00
2019-04-21T11:13:41.057Z,15.00
2019-04-21T11:16:12.986Z,15.00
2019-04-21T11:18:44.142Z,15.00
2019-04-21T11:21:15.085Z,15.00
2019-04-21T11:23:45.937Z,15.10
2019-04-21T11:26:17.901Z,15.10
2019-04-21T11:28:48.958Z,15.40
2019-04-21T11:31:21.185Z,15.20
2019-04-21T11:33:53.231Z,15.10
2019-04-21T11:36:24.995Z,15.00
2019-04-21T11:39:24.688Z,15.00
2019-04-21T11:44:23.172Z,15.00
2019-04-21T11:46:54.361Z,15.40
2019-04-21T11:49:30.220Z,15.20
2019-04-21T11:51:58.794Z,15.20
2019-04-21T11:54:30.937Z,15.30
2019-04-21T11:57:11.797Z,15.20
2019-04-21T11:59:35.589Z,14.80
2019-04-21T12:02:07.877Z,14.60
2019-04-21T12:04:39.327Z,14.50
2019-04-21T12:07:11.380Z,14.50
2019-04-21T12:09:43.691Z,14.60
2019-04-21T12:12:15.008Z,14.50
2019-04-21T12:14:45.942Z,14.40
2019-04-21T12:17:18.247Z,14.40
2019-04-21T12:19:50.666Z,14.60
2019-04-21T12:22:26.775Z,14.80
2019-04-21T12:24:55.495Z,14.70
2019-04-21T12:27:27.739Z,14.90
2019-04-21T12:29:59.673Z,15.10
2019-04-21T12:32:53.828Z,15.30
2019-04-21T12:35:26.134Z,15.30
2019-04-21T12:37:58.414Z,15.20
2019-04-21T12:40:30.553Z,15.10
2019-04-21T12:43:02.697Z,14.80
2019-04-21T12:45:33.986Z,14.80
2019-04-21T12:48:06.063Z,14.90
2019-04-21T12:50:37.048Z,14.90
2019-04-21T12:53:07.929Z,14.70
2019-04-21T12:55:42.789Z,14.90
2019-04-21T12:58:11.175Z,14.80
2019-04-21T13:00:42.887Z,14.80
2019-04-21T13:03:14.129Z,14.80
2019-04-21T13:05:47.439Z,14.70
2019-04-21T13:08:19.700Z,14.70
2019-04-21T13:10:52.000Z,14.80
2019-04-21T13:13:23.961Z,14.50
2019-04-21T13:15:55.765Z,14.40
2019-04-21T13:18:27.038Z,14.40
2019-04-21T13:21:00.903Z,14.40
2019-04-21T13:23:31.280Z,14.20
2019-04-21T13:26:04.384Z,14.30
2019-04-21T13:28:34.663Z,14.30
2019-04-21T13:31:06.493Z,14.40
2019-04-21T13:33:37.756Z,14.40
2019-04-21T13:36:09.700Z,14.40
2019-04-21T13:39:25.973Z,14.50
2019-04-21T13:41:42.994Z,14.50
2019-04-21T13:44:15.671Z,14.50
2019-04-21T13:46:47.297Z,14.60
2019-04-21T13:49:19.199Z,14.60
2019-04-21T13:51:50.156Z,14.60
2019-04-21T13:54:21.892Z,14.70
2019-04-21T13:56:54.265Z,14.70
2019-04-21T13:59:26.453Z,14.70
2019-04-21T14:01:58.417Z,14.70
2019-04-21T14:04:29.620Z,14.80
2019-04-21T14:07:02.503Z,14.90
2019-04-21T14:09:43.810Z,15.00
2019-04-21T14:14:38.635Z,15.00
2019-04-21T14:17:10.783Z,15.10
2019-04-21T14:19:43.539Z,15.20
2019-04-21T14:22:16.015Z,15.30
2019-04-21T14:24:48.032Z,15.20
2019-04-21T14:27:18.776Z,15.30
2019-04-21T14:29:49.598Z,15.40
2019-04-21T14:32:20.535Z,15.40
2019-04-21T14:34:53.867Z,15.30
2019-04-21T14:37:24.691Z,15.40
2019-04-21T14:40:03.978Z,15.40
2019-04-21T14:42:29.733Z,15.40
2019-04-21T14:47:56.714Z,15.40
2019-04-21T14:50:46.329Z,15.40
2019-04-21T14:53:23.535Z,15.50
2019-04-21T15:01:02.000Z,15.60
2019-04-21T15:03:34.225Z,15.70
2019-04-21T15:06:05.598Z,15.80
2019-04-21T15:08:37.410Z,15.90
2019-04-21T15:11:08.663Z,15.90
2019-04-21T15:13:39.768Z,15.80
2019-04-21T15:16:11.010Z,15.70
2019-04-21T15:18:41.885Z,15.70
2019-04-21T15:21:13.247Z,15.70
2019-04-21T15:23:46.519Z,15.70
2019-04-21T15:26:19.945Z,15.70
2019-04-21T15:28:51.105Z,15.70
2019-04-21T15:33:54.918Z,15.70
2019-04-21T15:36:27.235Z,15.60
2019-04-21T15:38:58.172Z,15.60
2019-04-21T15:41:30.174Z,15.40
2019-04-21T15:44:03.094Z,15.20
2019-04-21T15:46:35.193Z,14.90
2019-04-21T15:49:07.027Z,14.70
2019-04-21T15:51:38.058Z,14.50
2019-04-21T15:54:09.240Z,14.30
2019-04-21T15:56:48.961Z,14.00
2019-04-21T16:12:25.708Z,13.80
2019-04-21T16:14:56.641Z,13.30
2019-04-21T16:17:29.517Z,13.30
2019-04-21T16:20:02.058Z,13.30
2019-04-21T16:22:34.825Z,13.40
2019-04-21T16:27:37.217Z,13.30
2019-04-21T16:30:10.004Z,13.10
2019-04-21T16:32:41.995Z,13.00
2019-04-21T16:35:15.001Z,12.80
2019-04-21T16:37:45.814Z,12.70
2019-04-21T16:40:17.206Z,12.70
2019-04-21T16:42:48.238Z,12.60
2019-04-21T16:45:21.019Z,12.40
2019-04-21T16:47:53.764Z,12.30
2019-04-21T16:50:25.718Z,12.30
2019-04-21T16:53:03.909Z,12.20
2019-04-21T16:55:46.950Z,12.20
2019-04-21T16:58:45.652Z,12.20
2019-04-21T17:01:24.196Z,12.10
2019-04-21T17:03:55.476Z,12.00
2019-04-21T17:06:27.039Z,11.90
2019-04-21T17:08:58.966Z,12.00
2019-04-21T17:11:34.777Z,11.90
2019-04-21T17:14:03.580Z,11.90
2019-04-21T17:17:03.842Z,11.90
2019-04-21T17:19:14.664Z,11.80
2019-04-21T17:21:39.630Z,11.80
2019-04-21T17:24:12.704Z,11.80
2019-04-21T17:26:44.673Z,11.70
2019-04-21T17:29:16.862Z,11.70
2019-04-21T17:31:47.791Z,11.50
2019-04-21T17:34:22.921Z,11.40
2019-04-21T17:37:45.866Z,11.40
2019-04-21T17:48:36.632Z,11.10
2019-04-21T17:56:24.502Z,11.10
2019-04-21T18:02:36.955Z,11.00
2019-04-21T18:06:02.342Z,10.80
2019-04-21T18:08:46.224Z,10.80
2019-04-21T18:11:22.786Z,10.70
2019-04-21T18:13:47.285Z,10.70
2019-04-21T18:16:41.014Z,10.70
2019-04-21T18:19:51.396Z,10.70
2019-04-21T18:22:59.069Z,10.70
2019-04-21T18:25:38.494Z,10.60
2019-04-21T18:27:58.872Z,10.50
2019-04-21T18:49:54.427Z,10.50
2019-04-21T18:52:55.368Z,10.20
2019-04-21T18:55:16.244Z,10.20
2019-04-21T18:57:42.761Z,10.10
2019-04-21T19:00:18.946Z,10.10
2019-04-21T19:02:46.518Z,10.00
2019-04-21T19:05:20.733Z,10.10
2019-04-21T19:08:04.438Z,10.10
2019-04-21T19:10:40.933Z,10.10
2019-04-21T19:13:41.963Z,10.00
2019-04-21T19:16:01.400Z,10.00
2019-04-21T19:18:39.799Z,10.00
2019-04-21T19:20:49.014Z,10.00
2019-04-21T19:23:33.975Z,10.00
2019-04-21T19:25:55.595Z,9.90
2019-04-21T19:28:24.629Z,9.90
2019-04-21T19:31:05.139Z,9.90
2019-04-21T19:33:31.007Z,9.90
2019-04-21T19:35:47.559Z,9.90
2019-04-21T19:38:31.724Z,9.80
2019-04-21T19:41:09.325Z,9.80
2019-04-21T19:43:45.921Z,9.80
2019-04-21T19:46:14.114Z,9.80
2019-04-21T19:48:56.659Z,9.80
2019-04-21T19:51:15.433Z,9.80
2019-04-21T19:53:47.042Z,9.80
2019-04-21T19:56:06.007Z,9.70
2019-04-21T19:58:40.491Z,9.70
2019-04-21T20:01:09.731Z,9.70
2019-04-21T20:03:43.162Z,9.70
2019-04-21T20:06:28.794Z,9.70
2019-04-21T20:09:07.002Z,9.70
2019-04-21T20:11:34.619Z,9.90
2019-04-21T20:14:37.659Z,9.90
2019-04-21T20:16:41.713Z,10.00
2019-04-21T20:19:01.385Z,10.00
2019-04-21T20:21:28.951Z,10.00
2019-04-21T20:24:05.035Z,10.00
2019-04-21T20:26:37.917Z,10.00
2019-04-21T20:29:20.847Z,10.10
2019-04-21T20:31:57.590Z,10.00
2019-04-21T20:34:34.154Z,10.00
2019-04-21T20:37:06.185Z,10.00
2019-04-21T20:39:20.877Z,9.90
2019-04-21T20:42:04.147Z,9.90
2019-04-21T20:44:39.094Z,9.90
2019-04-21T20:47:03.917Z,9.80
2019-04-21T20:49:37.609Z,9.80
2019-04-21T20:52:17.529Z,10.00
2019-04-21T20:54:45.208Z,10.10
2019-04-21T20:57:18.995Z,10.20
2019-04-21T20:59:44.020Z,10.30
2019-04-21T21:02:19.990Z,10.40
2019-04-21T21:04:45.739Z,10.30
2019-04-21T21:07:40.470Z,10.30
2019-04-21T21:10:09.126Z,10.30
2019-04-21T21:12:44.490Z,10.10
2019-04-21T21:15:02.591Z,10.10
2019-04-21T21:17:48.391Z,10.20
2019-04-21T21:20:16.278Z,10.20
2019-04-21T21:22:44.257Z,10.10
2019-04-21T21:25:18.730Z,10.20
2019-04-21T21:27:43.623Z,10.20
2019-04-21T21:30:21.334Z,10.20
2019-04-21T21:32:57.366Z,10.20
2019-04-21T21:35:24.771Z,10.20
2019-04-21T21:37:59.682Z,10.20
2019-04-21T21:40:34.875Z,10.20
2019-04-21T21:42:48.073Z,10.10
2019-04-21T21:45:22.324Z,10.10
2019-04-21T21:48:11.503Z,10.20
2019-04-21T21:50:35.939Z,10.10
2019-04-21T21:53:06.568Z,10.20
2019-04-21T21:55:33.978Z,10.10
2019-04-21T21:58:04.375Z,10.10
2019-04-21T22:00:42.029Z,10.10
2019-04-21T22:03:18.844Z,10.10
2019-04-21T22:05:48.902Z,10.10
2019-04-21T22:08:16.258Z,10.00
2019-04-21T22:10:47.407Z,10.10
2019-04-21T22:13:21.579Z,10.10
2019-04-21T22:15:56.514Z,10.10
2019-04-21T22:18:39.138Z,10.10
2019-04-21T22:21:09.422Z,10.00
2019-04-21T22:23:39.908Z,10.00
2019-04-21T22:26:03.143Z,9.90
2019-04-21T22:28:33.902Z,10.00
2019-04-21T22:31:15.022Z,10.00
2019-04-21T22:33:41.879Z,10.00
2019-04-21T22:36:26.729Z,10.00
2019-04-21T22:38:59.623Z,10.00
2019-04-21T22:41:28.173Z,10.00
2019-04-21T22:43:51.657Z,10.00
2019-04-21T22:46:22.339Z,9.90
2019-04-21T22:48:59.498Z,9.80
2019-04-21T22:51:34.772Z,9.70
2019-04-21T22:53:59.963Z,9.60
2019-04-21T22:56:33.558Z,9.50
2019-04-21T22:59:08.090Z,9.40
2019-04-21T23:01:40.598Z,9.40
2019-04-21T23:04:08.919Z,9.30
2019-04-21T23:06:41.008Z,9.20
2019-04-21T23:09:12.883Z,9.20
2019-04-21T23:11:48.265Z,9.20
2019-04-21T23:14:17.563Z,9.20
2019-04-21T23:17:26.614Z,9.20
2019-04-21T23:19:46.244Z,9.30
2019-04-21T23:22:23.156Z,9.40
2019-04-21T23:24:57.339Z,9.30
2019-04-21T23:27:23.395Z,9.30
2019-04-21T23:30:09.966Z,9.30
2019-04-21T23:32:27.861Z,9.30
2019-04-21T23:34:49.109Z,9.30
2019-04-21T23:37:23.697Z,9.20
2019-04-21T23:40:01.075Z,9.10
2019-04-21T23:42:31.900Z,9.10
2019-04-21T23:44:59.525Z,9.20
2019-04-21T23:47:44.235Z,9.20
2019-04-21T23:50:19.528Z,9.20
2019-04-21T23:52:35.384Z,9.20
2019-04-21T23:55:07.533Z,9.20
2019-04-21T23:57:43.216Z,9.20
